createdAt,value
2023-03-18T00:00:09.249Z,9.711804
2023-03-18T00:01:09.245Z,9.711878
2023-03-18T00:02:09.234Z,9.711763
2023-03-18T00:03:09.229Z,9.711766
2023-03-18T00:04:09.269Z,9.711822
2023-03-18T00:05:09.216Z,9.711896
2023-03-18T00:06:09.251Z,9.711754
2023-03-18T00:07:09.215Z,9.711772
2023-03-18T00:08:09.190Z,9.711660
2023-03-18T00:09:09.175Z,9.711795
2023-03-18T00:10:09.169Z,9.711747
2023-03-18T00:11:09.162Z,9.711770
2023-03-18T00:12:09.173Z,9.711938
2023-03-18T00:13:09.153Z,9.711856
2023-03-18T00:14:09.153Z,9.711774
2023-03-18T00:15:09.143Z,9.711905
2023-03-18T00:16:09.207Z,9.711890
2023-03-18T00:17:10.243Z,9.711784
2023-03-18T00:18:09.099Z,9.711829
2023-03-18T00:19:09.113Z,9.712026
2023-03-18T00:20:09.098Z,9.711926
2023-03-18T00:21:09.108Z,9.711894
2023-03-18T00:22:09.073Z,9.711709
2023-03-18T00:28:10.292Z,9.711665
2023-03-18T00:29:10.300Z,9.711738
2023-03-18T00:30:10.285Z,9.711818
2023-03-18T00:31:10.330Z,9.711678
2023-03-18T00:32:10.265Z,9.711553
2023-03-18T00:33:10.328Z,9.711504
2023-03-18T00:34:12.401Z,9.711450
2023-03-18T00:35:11.256Z,9.711423
2023-03-18T00:36:11.311Z,9.711452
2023-03-18T00:37:10.221Z,9.711432
2023-03-18T00:38:10.222Z,9.711692
2023-03-18T00:39:10.205Z,9.711584
2023-03-18T00:40:10.197Z,9.711559
2023-03-18T00:41:11.151Z,9.711476
2023-03-18T00:42:10.195Z,9.711446
2023-03-18T00:43:10.161Z,9.711319
2023-03-18T00:44:11.157Z,9.711206
2023-03-18T00:45:10.180Z,9.711190
2023-03-18T00:46:10.147Z,9.711164
2023-03-18T00:47:10.140Z,9.711258
2023-03-18T00:48:10.124Z,9.711294
2023-03-18T00:49:10.127Z,9.711104
2023-03-18T00:50:10.121Z,9.711138
2023-03-18T00:51:10.102Z,9.710652
2023-03-18T00:52:10.087Z,9.710901
2023-03-18T00:53:11.064Z,9.711098
2023-03-18T00:54:10.087Z,9.711373
2023-03-18T00:55:10.066Z,9.712195
2023-03-18T00:56:10.101Z,9.712045
2023-03-18T00:57:10.064Z,9.712475
2023-03-18T00:58:10.049Z,9.711982
2023-03-18T00:59:10.643Z,9.711893
2023-03-18T01:00:10.027Z,9.711627
2023-03-18T01:01:10.088Z,9.711430
2023-03-18T01:02:10.069Z,9.710805
2023-03-18T01:03:10.004Z,9.711145
2023-03-18T01:04:10.008Z,9.711699
2023-03-18T01:05:09.989Z,9.711693
2023-03-18T01:06:09.996Z,9.711853
2023-03-18T01:07:09.981Z,9.711982
2023-03-18T01:08:10.082Z,9.711566
2023-03-18T01:09:09.960Z,9.711705
2023-03-18T01:10:09.942Z,9.711689
2023-03-18T01:11:09.950Z,9.711695
2023-03-18T01:12:09.966Z,9.711657
2023-03-18T01:13:09.938Z,9.711814
2023-03-18T01:14:09.914Z,9.711650
2023-03-18T01:15:09.897Z,9.711606
2023-03-18T01:16:09.932Z,9.711535
2023-03-18T01:17:09.900Z,9.711535
2023-03-18T01:18:09.888Z,9.711564
2023-03-18T01:19:09.892Z,9.711570
2023-03-18T01:20:09.882Z,9.711576
2023-03-18T01:21:09.856Z,9.711549
2023-03-18T01:22:09.843Z,9.711606
2023-03-18T01:23:09.838Z,9.711536
2023-03-18T01:24:09.834Z,9.711610
2023-03-18T01:25:09.830Z,9.711535
2023-03-18T01:26:09.820Z,9.711560
2023-03-18T01:27:09.816Z,9.711531
2023-03-18T01:28:09.801Z,9.711592
2023-03-18T01:29:09.816Z,9.711575
2023-03-18T01:30:09.786Z,9.711516
2023-03-18T01:31:09.772Z,9.711613
2023-03-18T01:32:09.795Z,9.711574
2023-03-18T01:33:09.920Z,9.711587
2023-03-18T01:34:09.757Z,9.711589
2023-03-18T01:35:09.740Z,9.711535
2023-03-18T01:36:09.764Z,9.711560
2023-03-18T01:37:09.716Z,9.711574
2023-03-18T01:38:09.720Z,9.711522
2023-03-18T01:39:09.712Z,9.711519
2023-03-18T01:40:09.698Z,9.711486
2023-03-18T01:41:09.712Z,9.711445
2023-03-18T01:42:09.676Z,9.711473
2023-03-18T01:43:09.677Z,9.711531
2023-03-18T01:44:09.670Z,9.711473
2023-03-18T01:45:09.655Z,9.711436
2023-03-18T01:46:09.704Z,9.711452
2023-03-18T01:47:09.633Z,9.711389
2023-03-18T01:48:09.641Z,9.711381
2023-03-18T01:49:09.621Z,9.711422
2023-03-18T01:50:09.617Z,9.711582
2023-03-18T01:51:09.605Z,9.711595
2023-03-18T01:52:09.591Z,9.711639
2023-03-18T01:53:10.581Z,9.711658
2023-03-18T01:54:09.593Z,9.711613
2023-03-18T01:55:09.578Z,9.711629
2023-03-18T01:56:09.558Z,9.711679
2023-03-18T01:57:09.571Z,9.711679
2023-03-18T01:58:09.553Z,9.711602
2023-03-18T01:59:09.542Z,9.711599
2023-03-18T02:00:09.533Z,9.711646
2023-03-18T02:01:09.542Z,9.711619
2023-03-18T02:02:09.520Z,9.711661
2023-03-18T02:03:09.504Z,9.711609
2023-03-18T02:04:09.512Z,9.711678
2023-03-18T02:05:09.494Z,9.711618
2023-03-18T02:06:09.489Z,9.711699
2023-03-18T02:07:09.476Z,9.711617
2023-03-18T02:08:09.463Z,9.711647
2023-03-18T02:09:09.478Z,9.711613
2023-03-18T02:10:10.416Z,9.711613
2023-03-18T02:11:09.458Z,9.711631
2023-03-18T02:12:09.444Z,9.711650
2023-03-18T02:13:10.077Z,9.711647
2023-03-18T02:14:09.424Z,9.711647
2023-03-18T02:15:09.427Z,9.711640
2023-03-18T02:16:09.401Z,9.711658
2023-03-18T02:17:09.385Z,9.711640
2023-03-18T02:18:09.396Z,9.711643
2023-03-18T02:19:09.396Z,9.711625
2023-03-18T02:20:09.372Z,9.711600
2023-03-18T02:21:09.468Z,9.711626
2023-03-18T02:22:09.344Z,9.711619
2023-03-18T02:23:09.345Z,9.711630
2023-03-18T02:24:09.341Z,9.711659
2023-03-18T02:25:09.337Z,9.711685
2023-03-18T02:26:09.335Z,9.711711
2023-03-18T02:27:09.321Z,9.711653
2023-03-18T02:28:09.310Z,9.711639
2023-03-18T02:29:09.296Z,9.711639
2023-03-18T02:30:09.295Z,9.711656
2023-03-18T02:31:09.391Z,9.711649
2023-03-18T02:32:09.274Z,9.711610
2023-03-18T02:33:09.291Z,9.711605
2023-03-18T02:34:09.249Z,9.711647
2023-03-18T02:35:09.261Z,9.711701
2023-03-18T02:36:09.246Z,9.711716
2023-03-18T02:37:09.234Z,9.711680
2023-03-18T02:38:09.251Z,9.711704
2023-03-18T02:39:10.087Z,9.711676
2023-03-18T02:40:09.231Z,9.711699
2023-03-18T02:41:09.198Z,9.711699
2023-03-18T02:42:09.200Z,9.711626
2023-03-18T02:43:09.195Z,9.711569
2023-03-18T02:44:09.179Z,9.711693
2023-03-18T02:45:09.179Z,9.711647
2023-03-18T02:46:09.192Z,9.711665
2023-03-18T02:47:09.172Z,9.711711
2023-03-18T02:48:09.157Z,9.711703
2023-03-18T02:49:09.668Z,9.711698
2023-03-18T02:50:09.132Z,9.711793
2023-03-18T02:51:09.125Z,9.711712
2023-03-18T02:52:09.120Z,9.711667
2023-03-18T02:53:09.124Z,9.711646
2023-03-18T02:54:09.101Z,9.711669
2023-03-18T02:55:09.097Z,9.711680
2023-03-18T02:56:09.079Z,9.711720
2023-03-18T02:57:09.073Z,9.711733
2023-03-18T02:58:09.081Z,9.711699
2023-03-18T02:59:09.054Z,9.711686
2023-03-18T03:00:09.046Z,9.711692
2023-03-18T03:01:09.077Z,9.711690
2023-03-18T03:02:09.083Z,9.711694
2023-03-18T03:03:09.208Z,9.711654
2023-03-18T03:04:09.019Z,9.711677
2023-03-18T03:05:08.999Z,9.711711
2023-03-18T03:06:10.006Z,9.711743
2023-03-18T03:07:08.991Z,9.711709
2023-03-18T03:08:08.985Z,9.711692
2023-03-18T03:09:09.013Z,9.711611
2023-03-18T03:10:08.975Z,9.711669
2023-03-18T03:11:08.959Z,9.711839
2023-03-18T03:12:08.970Z,9.711857
2023-03-18T03:13:08.958Z,9.711830
2023-03-18T03:14:08.961Z,9.711678
2023-03-18T03:15:08.951Z,9.711788
2023-03-18T03:16:08.971Z,9.711669
2023-03-18T03:17:08.914Z,9.711691
2023-03-18T03:18:08.913Z,9.711693
2023-03-18T03:19:08.915Z,9.711700
2023-03-18T03:20:08.902Z,9.711851
2023-03-18T03:21:08.937Z,9.711801
2023-03-18T03:22:08.880Z,9.711747
2023-03-18T03:23:08.875Z,9.711794
2023-03-18T03:24:08.864Z,9.711784
2023-03-18T03:25:08.842Z,9.711796
2023-03-18T03:26:08.848Z,9.711773
2023-03-18T03:27:08.838Z,9.711782
2023-03-18T03:28:08.850Z,9.711788
2023-03-18T03:29:08.819Z,9.711754
2023-03-18T03:30:08.806Z,9.711744
2023-03-18T03:31:08.902Z,9.711739
2023-03-18T03:32:08.786Z,9.711718
2023-03-18T03:33:08.821Z,9.711766
2023-03-18T03:34:08.773Z,9.711777
2023-03-18T03:35:08.785Z,9.711838
2023-03-18T03:36:08.809Z,9.711784
2023-03-18T03:37:08.759Z,9.711782
2023-03-18T03:38:08.753Z,9.711779
2023-03-18T03:39:08.730Z,9.711772
2023-03-18T03:40:08.734Z,9.711857
2023-03-18T03:41:08.726Z,9.711896
2023-03-18T03:42:08.728Z,9.711830
2023-03-18T03:43:08.704Z,9.711774
2023-03-18T03:44:08.708Z,9.711709
2023-03-18T03:45:08.688Z,9.711637
2023-03-18T03:46:08.736Z,9.711776
2023-03-18T03:47:09.616Z,9.711976
2023-03-18T03:48:08.664Z,9.712012
2023-03-18T03:49:08.662Z,9.711942
2023-03-18T03:50:08.641Z,9.711907
2023-03-18T03:51:08.645Z,9.711907
2023-03-18T03:52:08.650Z,9.711841
2023-03-18T03:53:08.614Z,9.712002
2023-03-18T03:54:08.622Z,9.711980
2023-03-18T03:55:08.601Z,9.712005
2023-03-18T03:56:08.604Z,9.712236
2023-03-18T03:57:08.594Z,9.711948
2023-03-18T03:58:08.582Z,9.711687
2023-03-18T03:59:08.583Z,9.711723
2023-03-18T04:00:08.566Z,9.711722
2023-03-18T04:01:08.583Z,9.711736
2023-03-18T04:02:08.559Z,9.711681
2023-03-18T04:03:08.557Z,9.711691
2023-03-18T04:04:08.575Z,9.711657
2023-03-18T04:05:08.531Z,9.711614
2023-03-18T04:06:08.534Z,9.711650
2023-03-18T04:07:08.504Z,9.711623
2023-03-18T04:08:08.515Z,9.711630
2023-03-18T04:09:08.504Z,9.711640
2023-03-18T04:10:08.493Z,9.711631
2023-03-18T04:11:08.492Z,9.711674
2023-03-18T04:12:08.470Z,9.711708
2023-03-18T04:13:08.475Z,9.711739
2023-03-18T04:14:08.460Z,9.711684
2023-03-18T04:15:08.436Z,9.711714
2023-03-18T04:16:08.551Z,9.711689
2023-03-18T04:17:08.435Z,9.711645
2023-03-18T04:18:08.446Z,9.711649
2023-03-18T04:19:08.416Z,9.711630
2023-03-18T04:20:08.410Z,9.711659
2023-03-18T04:21:08.408Z,9.711625
2023-03-18T04:22:08.396Z,9.711699
2023-03-18T04:23:08.390Z,9.711646
2023-03-18T04:24:08.374Z,9.711653
2023-03-18T04:25:08.382Z,9.711690
2023-03-18T04:26:08.355Z,9.711766
2023-03-18T04:27:08.354Z,9.711864
2023-03-18T04:28:08.353Z,9.711797
2023-03-18T04:29:08.346Z,9.711720
2023-03-18T04:30:08.378Z,9.711797
2023-03-18T04:31:08.423Z,9.711728
2023-03-18T04:32:08.319Z,9.711673
2023-03-18T04:33:08.335Z,9.711727
2023-03-18T04:34:08.300Z,9.711667
2023-03-18T04:35:08.296Z,9.711636
2023-03-18T04:36:08.343Z,9.711716
2023-03-18T04:37:08.272Z,9.711607
2023-03-18T04:38:08.265Z,9.711589
2023-03-18T04:39:08.259Z,9.711705
2023-03-18T04:40:08.268Z,9.711735
2023-03-18T04:41:08.248Z,9.711798
2023-03-18T04:42:08.234Z,9.711739
2023-03-18T04:43:08.225Z,9.711752
2023-03-18T04:44:08.227Z,9.711766
2023-03-18T04:45:08.215Z,9.711685
2023-03-18T04:46:08.230Z,9.711768
2023-03-18T04:47:08.204Z,9.711790
2023-03-18T04:48:09.116Z,9.711804
2023-03-18T04:49:09.176Z,9.711818
2023-03-18T04:50:08.156Z,9.711717
2023-03-18T04:51:08.157Z,9.711694
2023-03-18T04:52:27.077Z,9.711666
2023-03-18T04:53:08.162Z,9.711735
2023-03-18T04:54:08.147Z,9.711794
2023-03-18T04:55:08.123Z,9.711882
2023-03-18T04:56:08.128Z,9.711740
2023-03-18T04:57:08.119Z,9.711745
2023-03-18T04:58:08.092Z,9.711707
2023-03-18T04:59:08.102Z,9.711733
2023-03-18T05:00:10.401Z,9.711746
2023-03-18T05:01:08.611Z,9.711685
2023-03-18T05:02:09.080Z,9.711728
2023-03-18T05:03:08.080Z,9.711718
2023-03-18T05:04:08.085Z,9.711729
2023-03-18T05:05:08.064Z,9.711720
2023-03-18T05:06:08.044Z,9.711720
2023-03-18T05:07:08.035Z,9.711714
2023-03-18T05:08:08.048Z,9.711705
2023-03-18T05:09:08.013Z,9.711690
2023-03-18T05:10:08.014Z,9.711659
2023-03-18T05:11:08.023Z,9.711698
2023-03-18T05:12:07.995Z,9.711676
2023-03-18T05:13:07.984Z,9.711670
2023-03-18T05:14:07.983Z,9.711641
2023-03-18T05:15:07.975Z,9.711674
2023-03-18T05:16:08.016Z,9.711654
2023-03-18T05:17:07.954Z,9.711658
2023-03-18T05:18:07.943Z,9.711635
2023-03-18T05:19:07.932Z,9.711649
2023-03-18T05:20:07.927Z,9.711612
2023-03-18T05:21:07.933Z,9.711617
2023-03-18T05:22:07.913Z,9.711611
2023-03-18T05:23:07.923Z,9.711583
2023-03-18T05:24:07.906Z,9.711588
2023-03-18T05:25:07.894Z,9.711563
2023-03-18T05:26:07.885Z,9.711550
2023-03-18T05:27:07.952Z,9.711541
2023-03-18T05:28:10.852Z,9.711534
2023-03-18T05:29:07.860Z,9.711531
2023-03-18T05:30:07.863Z,9.711592
2023-03-18T05:31:07.871Z,9.711612
2023-03-18T05:32:07.929Z,9.711556
2023-03-18T05:33:07.906Z,9.711534
2023-03-18T05:34:07.822Z,9.711525
2023-03-18T05:35:07.812Z,9.711527
2023-03-18T05:36:07.936Z,9.711539
2023-03-18T05:37:07.827Z,9.711544
2023-03-18T05:38:07.790Z,9.711547
2023-03-18T05:39:07.795Z,9.711501
2023-03-18T05:40:07.774Z,9.711494
2023-03-18T05:41:07.762Z,9.711492
2023-03-18T05:42:07.973Z,9.711539
2023-03-18T05:43:07.745Z,9.711564
2023-03-18T05:44:07.740Z,9.711604
2023-03-18T05:45:07.748Z,9.711534
2023-03-18T05:46:07.791Z,9.711488
2023-03-18T05:47:07.721Z,9.711634
2023-03-18T05:48:07.701Z,9.711566
2023-03-18T05:49:07.698Z,9.711642
2023-03-18T05:50:07.709Z,9.711582
2023-03-18T05:51:07.689Z,9.711586
2023-03-18T05:52:07.693Z,9.711633
2023-03-18T05:53:07.667Z,9.711572
2023-03-18T05:54:07.649Z,9.711410
2023-03-18T05:55:07.666Z,9.711699
2023-03-18T05:56:07.639Z,9.711954
2023-03-18T05:57:08.646Z,9.711604
2023-03-18T05:58:07.640Z,9.711703
2023-03-18T05:59:07.633Z,9.711708
2023-03-18T06:00:07.616Z,9.711676
2023-03-18T06:01:07.605Z,9.711732
2023-03-18T06:02:07.603Z,9.711687
2023-03-18T06:03:07.626Z,9.711780
2023-03-18T06:04:07.584Z,9.711728
2023-03-18T06:05:07.576Z,9.711730
2023-03-18T06:06:07.588Z,9.711726
2023-03-18T06:07:07.565Z,9.711769
2023-03-18T06:08:07.556Z,9.711975
2023-03-18T06:09:07.558Z,9.711993
2023-03-18T06:10:07.537Z,9.711962
2023-03-18T06:11:07.533Z,9.712014
2023-03-18T06:12:07.528Z,9.711764
2023-03-18T06:13:07.514Z,9.711618
2023-03-18T06:14:07.528Z,9.711506
2023-03-18T06:15:07.494Z,9.711637
2023-03-18T06:16:07.490Z,9.711575
2023-03-18T06:17:07.483Z,9.711845
2023-03-18T06:18:07.470Z,9.712035
2023-03-18T06:19:07.454Z,9.711850
2023-03-18T06:20:07.472Z,9.711796
2023-03-18T06:21:07.443Z,9.711756
2023-03-18T06:22:07.451Z,9.711617
2023-03-18T06:23:07.424Z,9.711885
2023-03-18T06:24:07.425Z,9.711601
2023-03-18T06:25:07.408Z,9.711594
2023-03-18T06:26:09.236Z,9.711817
2023-03-18T06:27:07.397Z,9.711810
2023-03-18T06:28:07.378Z,9.711923
2023-03-18T06:29:07.393Z,9.711825
2023-03-18T06:30:07.391Z,9.711634
2023-03-18T06:31:07.432Z,9.711672
2023-03-18T06:32:07.355Z,9.711746
2023-03-18T06:33:07.418Z,9.711800
2023-03-18T06:34:07.342Z,9.711757
2023-03-18T06:35:07.360Z,9.711720
2023-03-18T06:36:07.341Z,9.711753
2023-03-18T06:37:07.321Z,9.711746
2023-03-18T06:38:07.305Z,9.711617
2023-03-18T06:39:07.298Z,9.711636
2023-03-18T06:40:07.310Z,9.711773
2023-03-18T06:41:07.290Z,9.711821
2023-03-18T06:42:07.318Z,9.711723
2023-03-18T06:43:07.291Z,9.711671
2023-03-18T06:44:07.269Z,9.711677
2023-03-18T06:45:07.266Z,9.711677
2023-03-18T06:46:07.289Z,9.711658
2023-03-18T06:47:07.247Z,9.711740
2023-03-18T06:48:07.249Z,9.711694
2023-03-18T06:49:07.236Z,9.711718
2023-03-18T06:50:07.227Z,9.711684
2023-03-18T06:51:07.230Z,9.711601
2023-03-18T06:52:07.200Z,9.711669
2023-03-18T06:53:07.179Z,9.711634
2023-03-18T06:54:07.188Z,9.711630
2023-03-18T06:55:07.171Z,9.711744
2023-03-18T06:56:07.180Z,9.711637
2023-03-18T06:57:07.156Z,9.711676
2023-03-18T06:58:07.168Z,9.711698
2023-03-18T06:59:07.148Z,9.711703
2023-03-18T07:00:07.117Z,9.711593
2023-03-18T07:01:07.173Z,9.711697
2023-03-18T07:02:07.115Z,9.711770
2023-03-18T07:03:07.107Z,9.711748
2023-03-18T07:04:07.269Z,9.711616
2023-03-18T07:05:07.086Z,9.711606
2023-03-18T07:06:07.084Z,9.711765
2023-03-18T07:07:07.068Z,9.711662
2023-03-18T07:08:07.065Z,9.711716
2023-03-18T07:09:07.061Z,9.711672
2023-03-18T07:10:07.055Z,9.711725
2023-03-18T07:11:07.070Z,9.711739
2023-03-18T07:12:07.047Z,9.711536
2023-03-18T07:13:07.021Z,9.711571
2023-03-18T07:14:07.017Z,9.711609
2023-03-18T07:15:07.050Z,9.711642
2023-03-18T07:16:07.121Z,9.711733
2023-03-18T07:17:06.991Z,9.711778
2023-03-18T07:18:06.984Z,9.711800
2023-03-18T07:19:06.987Z,9.711775
2023-03-18T07:20:06.969Z,9.711728
2023-03-18T07:21:06.962Z,9.711728
2023-03-18T07:22:06.956Z,9.711718
2023-03-18T07:23:06.959Z,9.711727
2023-03-18T07:24:07.262Z,9.711697
2023-03-18T07:25:06.921Z,9.711704
2023-03-18T07:26:06.926Z,9.711704
2023-03-18T07:27:06.935Z,9.711747
2023-03-18T07:28:06.910Z,9.711740
2023-03-18T07:29:06.907Z,9.711778
2023-03-18T07:30:06.872Z,9.711685
2023-03-18T07:31:06.977Z,9.711818
2023-03-18T07:32:06.919Z,9.712023
2023-03-18T07:33:06.973Z,9.712039
2023-03-18T07:34:06.863Z,9.711678
2023-03-18T07:35:06.847Z,9.711785
2023-03-18T07:36:06.906Z,9.711707
2023-03-18T07:37:06.818Z,9.711690
2023-03-18T07:38:06.817Z,9.711872
2023-03-18T07:39:06.849Z,9.711731
2023-03-18T07:40:06.807Z,9.711703
2023-03-18T07:41:06.810Z,9.711635
2023-03-18T07:42:06.802Z,9.711725
2023-03-18T07:43:06.773Z,9.711850
2023-03-18T07:44:06.799Z,9.711853
2023-03-18T07:45:06.766Z,9.711774
2023-03-18T07:46:06.839Z,9.711774
2023-03-18T07:47:06.766Z,9.711772
2023-03-18T07:48:06.754Z,9.711764
2023-03-18T07:49:06.722Z,9.711694
2023-03-18T07:50:06.715Z,9.711809
2023-03-18T07:51:06.729Z,9.711843
2023-03-18T07:52:06.716Z,9.711863
2023-03-18T07:53:06.734Z,9.711877
2023-03-18T07:54:06.690Z,9.711800
2023-03-18T07:55:06.706Z,9.711718
2023-03-18T07:56:06.687Z,9.711672
2023-03-18T07:57:06.703Z,9.711632
2023-03-18T07:58:06.679Z,9.711744
2023-03-18T07:59:06.644Z,9.711688
2023-03-18T08:00:06.936Z,9.711680
2023-03-18T08:01:06.630Z,9.711633
2023-03-18T08:02:06.770Z,9.711649
2023-03-18T08:03:06.636Z,9.711670
2023-03-18T08:04:06.709Z,9.711661
2023-03-18T08:05:06.638Z,9.711666
2023-03-18T08:06:06.614Z,9.711609
2023-03-18T08:07:06.621Z,9.711635
2023-03-18T08:08:06.618Z,9.711665
2023-03-18T08:09:07.164Z,9.711679
2023-03-18T08:10:06.576Z,9.711692
2023-03-18T08:11:06.682Z,9.711720
2023-03-18T08:12:06.543Z,9.711749
2023-03-18T08:13:06.576Z,9.711761
2023-03-18T08:14:06.563Z,9.711819
2023-03-18T08:15:06.536Z,9.711751
2023-03-18T08:16:06.600Z,9.711718
2023-03-18T08:17:06.519Z,9.711759
2023-03-18T08:18:09.044Z,9.711775
2023-03-18T08:19:07.534Z,9.711695
2023-03-18T08:20:06.492Z,9.711782
2023-03-18T08:21:06.494Z,9.711776
2023-03-18T08:22:06.499Z,9.711777
2023-03-18T08:23:06.463Z,9.711747
2023-03-18T08:24:06.467Z,9.712122
2023-03-18T08:25:06.451Z,9.711914
2023-03-18T08:26:07.248Z,9.711807
2023-03-18T08:27:06.452Z,9.711810
2023-03-18T08:28:06.447Z,9.711766
2023-03-18T08:29:06.429Z,9.711868
2023-03-18T08:30:06.400Z,9.711868
2023-03-18T08:31:06.465Z,9.711829
2023-03-18T08:32:06.408Z,9.711684
2023-03-18T08:33:06.469Z,9.711913
2023-03-18T08:34:06.379Z,9.711932
2023-03-18T08:35:06.411Z,9.711812
2023-03-18T08:36:06.387Z,9.711810
2023-03-18T08:37:06.379Z,9.711647
2023-03-18T08:38:06.368Z,9.711817
2023-03-18T08:39:06.348Z,9.711806
2023-03-18T08:40:06.334Z,9.711776
2023-03-18T08:41:06.315Z,9.711791
2023-03-18T08:42:06.337Z,9.711780
2023-03-18T08:43:06.306Z,9.711658
2023-03-18T08:44:06.306Z,9.711681
2023-03-18T08:45:06.298Z,9.711641
2023-03-18T08:46:06.314Z,9.711703
2023-03-18T08:47:06.294Z,9.711844
2023-03-18T08:48:06.270Z,9.711749
2023-03-18T08:49:06.272Z,9.711679
2023-03-18T08:50:06.295Z,9.711729
2023-03-18T08:51:06.270Z,9.711575
2023-03-18T08:52:07.266Z,9.711657
2023-03-18T08:53:06.265Z,9.711768
2023-03-18T08:54:06.224Z,9.711802
2023-03-18T08:55:06.205Z,9.711779
2023-03-18T08:56:06.217Z,9.711664
2023-03-18T08:57:06.239Z,9.711879
2023-03-18T08:58:06.787Z,9.711802
2023-03-18T08:59:06.185Z,9.711661
2023-03-18T09:00:06.198Z,9.711754
2023-03-18T09:01:06.221Z,9.711659
2023-03-18T09:02:06.146Z,9.711677
2023-03-18T09:03:06.207Z,9.711615
2023-03-18T09:04:06.142Z,9.711640
2023-03-18T09:05:06.152Z,9.711652
2023-03-18T09:06:06.149Z,9.711678
2023-03-18T09:07:06.195Z,9.711639
2023-03-18T09:08:06.133Z,9.711688
2023-03-18T09:09:06.089Z,9.711658
2023-03-18T09:10:06.708Z,9.711678
2023-03-18T09:11:06.098Z,9.711656
2023-03-18T09:12:06.085Z,9.711644
2023-03-18T09:13:06.072Z,9.711638
2023-03-18T09:14:06.073Z,9.711680
2023-03-18T09:15:06.046Z,9.711667
2023-03-18T09:16:06.050Z,9.711683
2023-03-18T09:17:06.034Z,9.711660
2023-03-18T09:18:11.385Z,9.711649
2023-03-18T09:19:08.036Z,9.711626
2023-03-18T09:20:06.021Z,9.711691
2023-03-18T09:21:06.008Z,9.711723
2023-03-18T09:22:06.011Z,9.711662
2023-03-18T09:23:07.000Z,9.711661
2023-03-18T09:24:07.431Z,9.711690
2023-03-18T09:25:06.981Z,9.711727
2023-03-18T09:26:05.962Z,9.711686
2023-03-18T09:27:05.972Z,9.711817
2023-03-18T09:28:05.951Z,9.711789
2023-03-18T09:29:06.706Z,9.711750
2023-03-18T09:30:07.027Z,9.711778
2023-03-18T09:31:06.948Z,9.711798
2023-03-18T09:32:05.920Z,9.711690
2023-03-18T09:33:05.949Z,9.711755
2023-03-18T09:34:05.914Z,9.711878
2023-03-18T09:35:05.878Z,9.711943
2023-03-18T09:36:06.934Z,9.711679
2023-03-18T09:37:05.875Z,9.711652
2023-03-18T09:38:05.875Z,9.711580
2023-03-18T09:39:05.862Z,9.711586
2023-03-18T09:40:05.843Z,9.711894
2023-03-18T09:41:05.854Z,9.711891
2023-03-18T09:42:05.824Z,9.711696
2023-03-18T09:43:05.841Z,9.712250
2023-03-18T09:44:05.810Z,9.712004
2023-03-18T09:45:05.796Z,9.711923
2023-03-18T09:46:06.178Z,9.712046
2023-03-18T09:47:06.086Z,9.712019
2023-03-18T09:48:06.710Z,9.711974
2023-03-18T09:49:05.774Z,9.711879
2023-03-18T09:50:05.774Z,9.711949
2023-03-18T09:51:05.751Z,9.712170
2023-03-18T09:52:05.737Z,9.712216
2023-03-18T09:53:05.743Z,9.712333
2023-03-18T09:54:05.728Z,9.712237
2023-03-18T09:55:05.734Z,9.712195
2023-03-18T09:56:06.719Z,9.712268
2023-03-18T09:57:05.706Z,9.712251
2023-03-18T09:58:05.682Z,9.712034
2023-03-18T09:59:05.681Z,9.711986
2023-03-18T10:00:05.672Z,9.711825
2023-03-18T10:01:05.677Z,9.711793
2023-03-18T10:02:06.673Z,9.711774
2023-03-18T10:03:06.675Z,9.711785
2023-03-18T10:04:06.672Z,9.711731
2023-03-18T10:05:05.646Z,9.711734
2023-03-18T10:06:05.628Z,9.711769
2023-03-18T10:07:05.652Z,9.711733
2023-03-18T10:08:05.618Z,9.711768
2023-03-18T10:09:05.616Z,9.711780
2023-03-18T10:10:05.597Z,9.711811
2023-03-18T10:11:05.591Z,9.711845
2023-03-18T10:12:05.572Z,9.711768
2023-03-18T10:13:05.597Z,9.711775
2023-03-18T10:14:05.590Z,9.711881
2023-03-18T10:15:05.604Z,9.711963
2023-03-18T10:16:05.598Z,9.711999
2023-03-18T10:17:05.535Z,9.712018
2023-03-18T10:18:05.577Z,9.711912
2023-03-18T10:19:05.511Z,9.711805
2023-03-18T10:20:05.523Z,9.711810
2023-03-18T10:21:05.513Z,9.711793
2023-03-18T10:22:05.495Z,9.711748
2023-03-18T10:23:05.517Z,9.711735
2023-03-18T10:24:05.477Z,9.711959
2023-03-18T10:25:05.462Z,9.712004
2023-03-18T10:26:05.453Z,9.712002
2023-03-18T10:27:05.463Z,9.711973
2023-03-18T10:28:05.455Z,9.711885
2023-03-18T10:29:05.435Z,9.711918
2023-03-18T10:30:05.438Z,9.711926
2023-03-18T10:31:05.441Z,9.711864
2023-03-18T10:32:05.419Z,9.711800
2023-03-18T10:33:05.439Z,9.711875
2023-03-18T10:34:05.393Z,9.711866
2023-03-18T10:35:05.411Z,9.711892
2023-03-18T10:36:05.483Z,9.711809
2023-03-18T10:37:07.330Z,9.711826
2023-03-18T10:38:05.369Z,9.711760
2023-03-18T10:39:05.365Z,9.711811
2023-03-18T10:40:05.419Z,9.711827
2023-03-18T10:41:05.333Z,9.711953
2023-03-18T10:42:05.334Z,9.711788
2023-03-18T10:43:05.319Z,9.711706
2023-03-18T10:44:05.331Z,9.711719
2023-03-18T10:45:05.304Z,9.711742
2023-03-18T10:46:05.342Z,9.711790
2023-03-18T10:47:05.429Z,9.711740
2023-03-18T10:48:06.196Z,9.711757
2023-03-18T10:49:06.299Z,9.711641
2023-03-18T10:50:05.286Z,9.711707
2023-03-18T10:51:05.276Z,9.711674
2023-03-18T10:52:05.246Z,9.711642
2023-03-18T10:53:05.251Z,9.711666
2023-03-18T10:54:05.237Z,9.711649
2023-03-18T10:55:05.231Z,9.711643
2023-03-18T10:56:05.228Z,9.711635
2023-03-18T10:57:05.234Z,9.711651
2023-03-18T10:58:05.207Z,9.711692
2023-03-18T10:59:05.194Z,9.711814
2023-03-18T11:00:05.816Z,9.711800
2023-03-18T11:01:05.182Z,9.711732
2023-03-18T11:02:05.244Z,9.711753
2023-03-18T11:03:05.170Z,9.711738
2023-03-18T11:04:05.157Z,9.711630
2023-03-18T11:05:05.157Z,9.711699
2023-03-18T11:06:05.137Z,9.711797
2023-03-18T11:07:05.743Z,9.711739
2023-03-18T11:08:05.112Z,9.711846
2023-03-18T11:09:05.099Z,9.711780
2023-03-18T11:10:05.821Z,9.711776
2023-03-18T11:11:05.117Z,9.711738
2023-03-18T11:12:05.094Z,9.711768
2023-03-18T11:13:05.070Z,9.711639
2023-03-18T11:14:05.134Z,9.711675
2023-03-18T11:15:05.065Z,9.711654
2023-03-18T11:16:05.180Z,9.711768
2023-03-18T11:17:05.052Z,9.711679
2023-03-18T11:18:05.037Z,9.711530
2023-03-18T11:19:05.749Z,9.711750
2023-03-18T11:20:05.020Z,9.711673
2023-03-18T11:21:05.020Z,9.711742
2023-03-18T11:22:04.998Z,9.711802
2023-03-18T11:23:05.026Z,9.711709
2023-03-18T11:24:05.006Z,9.711721
2023-03-18T11:25:04.991Z,9.711596
2023-03-18T11:26:04.972Z,9.711732
2023-03-18T11:27:04.957Z,9.711763
2023-03-18T11:28:04.967Z,9.711755
2023-03-18T11:29:04.969Z,9.711729
2023-03-18T11:30:04.941Z,9.711632
2023-03-18T11:31:04.971Z,9.711730
2023-03-18T11:32:04.923Z,9.711751
2023-03-18T11:33:05.016Z,9.711535
2023-03-18T11:34:04.903Z,9.711561
2023-03-18T11:35:04.979Z,9.711596
2023-03-18T11:36:04.899Z,9.711612
2023-03-18T11:37:04.999Z,9.711627
2023-03-18T11:38:04.871Z,9.711767
2023-03-18T11:39:04.895Z,9.711647
2023-03-18T11:40:04.884Z,9.711711
2023-03-18T11:41:04.848Z,9.711655
2023-03-18T11:42:04.841Z,9.711681
2023-03-18T11:43:05.402Z,9.711716
2023-03-18T11:44:04.821Z,9.711735
2023-03-18T11:45:04.824Z,9.711719
2023-03-18T21:26:18.695Z,9.711571
2023-03-18T21:27:18.682Z,9.711484
2023-03-18T21:28:18.680Z,9.711521
2023-03-18T21:29:18.662Z,9.711459